Time;durP1;ratioP1;P1;durP2;ratioP2;P2;SDS_P1;SDS_P2;PMS_P1;PMS_P2;Temp;Humidity;BMP_temperature;BMP_pressure;BME280_temperature;BME280_humidity;BME280_pressure;Samples;Min_cycle;Max_cycle;Signal;HPM_P1;HPM_P2
2022/11/01 00:01:42;;;;;;;2.42;2.20;;;;;;;;;;5097672;28;20683;-65
2022/11/01 00:04:10;;;;;;;2.38;2.17;;;;;;;;;;5097958;28;20196;-66
2022/11/01 00:06:39;;;;;;;2.03;1.92;;;;;;;;;;5097304;28;20278;-65
2022/11/01 00:09:08;;;;;;;2.38;2.20;;;;;;;;;;5077971;28;20196;-65
2022/11/01 00:11:36;;;;;;;2.08;1.98;;;;;;;;;;5093541;28;20558;-65
2022/11/01 00:14:03;;;;;;;2.13;1.98;;;;;;;;;;5096844;28;20326;-65
2022/11/01 00:16:31;;;;;;;2.33;2.10;;;;;;;;;;5097708;28;20505;-65
2022/11/01 00:18:59;;;;;;;2.08;1.88;;;;;;;;;;5097158;28;20227;-65
2022/11/01 00:21:27;;;;;;;1.80;1.70;;;;;;;;;;5095355;28;20543;-65
2022/11/01 00:23:57;;;;;;;2.05;1.95;;;;;;;;;;5097629;28;20200;-65
2022/11/01 00:26:25;;;;;;;2.40;2.20;;;;;;;;;;5096968;28;20206;-65
2022/11/01 00:28:53;;;;;;;2.00;1.90;;;;;;;;;;5097860;28;20478;-65
2022/11/01 00:31:21;;;;;;;1.90;1.80;;;;;;;;;;5096837;28;20225;-65
2022/11/01 00:33:49;;;;;;;2.00;1.90;;;;;;;;;;5097853;28;20559;-65
2022/11/01 00:36:17;;;;;;;2.13;2.00;;;;;;;;;;5097580;28;20214;-65
2022/11/01 00:38:45;;;;;;;2.00;1.90;;;;;;;;;;5097547;28;20256;-65
2022/11/01 00:41:14;;;;;;;2.15;1.95;;;;;;;;;;5097631;28;20536;-65
2022/11/01 00:43:42;;;;;;;2.13;2.03;;;;;;;;;;5097752;28;20214;-65
2022/11/01 00:46:10;;;;;;;1.80;1.70;;;;;;;;;;5097410;28;20219;-65
2022/11/01 00:48:38;;;;;;;2.20;2.00;;;;;;;;;;5097911;28;20568;-65
2022/11/01 00:51:06;;;;;;;2.00;1.90;;;;;;;;;;5097394;28;20195;-65
2022/11/01 00:53:33;;;;;;;1.80;1.70;;;;;;;;;;5096981;28;20208;-65
2022/11/01 00:56:01;;;;;;;2.10;2.00;;;;;;;;;;5097106;28;20603;-65
2022/11/01 00:58:31;;;;;;;2.17;2.00;;;;;;;;;;5097699;28;20212;-65
2022/11/01 01:00:59;;;;;;;2.30;2.10;;;;;;;;;;5097239;28;20512;-65
2022/11/01 01:03:27;;;;;;;1.90;1.80;;;;;;;;;;5097590;28;20203;-65
2022/11/01 01:05:55;;;;;;;1.80;1.70;;;;;;;;;;5096813;28;20207;-65
2022/11/01 01:08:23;;;;;;;2.08;1.92;;;;;;;;;;5097150;28;20199;-65
2022/11/01 01:10:51;;;;;;;1.80;1.70;;;;;;;;;;5096733;28;20230;-65
2022/11/01 01:13:19;;;;;;;1.92;1.83;;;;;;;;;;5097476;28;20208;-65
2022/11/01 01:15:49;;;;;;;1.80;1.70;;;;;;;;;;5097123;28;20192;-65
2022/11/01 01:18:16;;;;;;;1.92;1.83;;;;;;;;;;5097050;28;20266;-65
2022/11/01 01:20:44;;;;;;;2.10;1.95;;;;;;;;;;5097062;28;20289;-65
2022/11/01 01:23:12;;;;;;;1.80;1.70;;;;;;;;;;5096880;28;20467;-65
2022/11/01 01:25:40;;;;;;;1.70;1.60;;;;;;;;;;5099682;28;20265;-65
2022/11/01 01:28:08;;;;;;;2.10;2.00;;;;;;;;;;5100848;28;20210;-65
2022/11/01 01:30:36;;;;;;;2.25;2.15;;;;;;;;;;5100767;28;20279;-65
2022/11/01 01:33:05;;;;;;;2.13;2.03;;;;;;;;;;5101242;28;20204;-65
2022/11/01 01:35:33;;;;;;;2.00;1.90;;;;;;;;;;5100868;28;20292;-65
2022/11/01 01:38:00;;;;;;;2.10;2.00;;;;;;;;;;5100903;28;20227;-65
2022/11/01 01:40:29;;;;;;;2.47;1.92;;;;;;;;;;5100764;28;20306;-65
2022/11/01 01:42:56;;;;;;;2.10;2.00;;;;;;;;;;5101035;28;20253;-65
2022/11/01 01:45:32;;;;;;;2.10;2.00;;;;;;;;;;5101017;28;20203;-65
2022/11/01 01:48:02;;;;;;;2.03;1.92;;;;;;;;;;5100656;28;20277;-65
2022/11/01 01:50:34;;;;;;;1.60;1.50;;;;;;;;;;5100602;28;20283;-65
2022/11/01 01:53:05;;;;;;;2.13;2.03;;;;;;;;;;5100492;28;20508;-65
2022/11/01 01:55:36;;;;;;;2.00;1.90;;;;;;;;;;5100427;28;20200;-65
2022/11/01 01:58:04;;;;;;;2.10;2.00;;;;;;;;;;5099758;28;20200;-65
2022/11/01 02:00:32;;;;;;;1.83;1.73;;;;;;;;;;5099823;28;20249;-65
2022/11/01 02:03:00;;;;;;;1.70;1.60;;;;;;;;;;5100872;28;20204;-65
2022/11/01 02:05:30;;;;;;;1.90;1.80;;;;;;;;;;5099971;28;20298;-65
2022/11/01 02:08:00;;;;;;;1.88;1.77;;;;;;;;;;5100242;28;20527;-65
2022/11/01 02:10:29;;;;;;;1.75;1.65;;;;;;;;;;5100113;28;20204;-65
2022/11/01 02:12:58;;;;;;;1.88;1.77;;;;;;;;;;5100068;28;20249;-65
2022/11/01 02:15:35;;;;;;;1.80;1.70;;;;;;;;;;5100141;28;20286;-65
2022/11/01 02:18:10;;;;;;;1.80;1.70;;;;;;;;;;5099603;28;20231;-65
2022/11/01 02:20:52;;;;;;;1.80;1.70;;;;;;;;;;5099712;28;20614;-65
2022/11/01 02:23:37;;;;;;;1.80;1.70;;;;;;;;;;5099799;28;20261;-65
2022/11/01 02:26:15;;;;;;;1.80;1.70;;;;;;;;;;5099225;28;20207;-65
2022/11/01 02:28:49;;;;;;;1.88;1.77;;;;;;;;;;5100062;28;20235;-65
2022/11/01 02:31:26;;;;;;;1.70;1.60;;;;;;;;;;5099565;28;20615;-65
2022/11/01 02:33:57;;;;;;;1.88;1.77;;;;;;;;;;5100034;28;20203;-65
2022/11/01 02:36:29;;;;;;;2.00;1.90;;;;;;;;;;5099153;28;20587;-65
2022/11/01 02:38:59;;;;;;;2.47;2.28;;;;;;;;;;5099840;28;20203;-65
2022/11/01 02:41:31;;;;;;;2.28;2.08;;;;;;;;;;5098995;28;20531;-65
2022/11/01 02:44:01;;;;;;;1.77;1.67;;;;;;;;;;5099520;28;20196;-67
2022/11/01 02:49:18;;;;;;;1.92;1.83;;;;;;;;;;5099267;28;20333;-65
2022/11/01 02:51:47;;;;;;;1.98;1.88;;;;;;;;;;5099258;28;20613;-65
2022/11/01 02:54:20;;;;;;;1.83;1.70;;;;;;;;;;5099598;28;20204;-65
2022/11/01 02:56:48;;;;;;;1.95;1.85;;;;;;;;;;5099253;28;20246;-65
2022/11/01 02:59:19;;;;;;;1.80;1.70;;;;;;;;;;5099340;28;20214;-65
2022/11/01 03:01:50;;;;;;;1.88;1.77;;;;;;;;;;5099097;28;20227;-65
2022/11/01 03:04:19;;;;;;;2.05;1.95;;;;;;;;;;5099266;28;20253;-65
2022/11/01 03:06:50;;;;;;;2.15;1.90;;;;;;;;;;5099154;28;20633;-65
2022/11/01 03:09:18;;;;;;;2.38;2.17;;;;;;;;;;5099024;28;20298;-65
2022/11/01 03:11:51;;;;;;;2.10;2.00;;;;;;;;;;5098397;28;20204;-65
2022/11/01 03:14:25;;;;;;;2.00;1.90;;;;;;;;;;5099023;28;20211;-65
2022/11/01 03:16:55;;;;;;;1.83;1.73;;;;;;;;;;5098222;28;20239;-65
2022/11/01 03:19:35;;;;;;;2.47;2.00;;;;;;;;;;5098717;28;20219;-65
2022/11/01 03:22:06;;;;;;;2.13;1.92;;;;;;;;;;5098432;28;20551;-65
2022/11/01 03:24:36;;;;;;;1.80;1.70;;;;;;;;;;5098739;28;20196;-65
2022/11/01 03:27:06;;;;;;;2.22;2.03;;;;;;;;;;5098500;28;20203;-65
2022/11/01 03:29:34;;;;;;;2.15;2.00;;;;;;;;;;5078133;28;20208;-65
2022/11/01 03:32:03;;;;;;;2.30;2.10;;;;;;;;;;5096511;28;20196;-66
2022/11/01 03:34:33;;;;;;;1.90;1.80;;;;;;;;;;5098288;28;20207;-65
2022/11/01 03:37:03;;;;;;;2.10;1.98;;;;;;;;;;5098336;28;20322;-65
2022/11/01 03:39:33;;;;;;;2.38;2.17;;;;;;;;;;5098371;28;20595;-65
2022/11/01 03:42:03;;;;;;;2.13;2.03;;;;;;;;;;5097997;28;20300;-65
2022/11/01 03:44:33;;;;;;;2.05;1.95;;;;;;;;;;5098433;28;20614;-65
2022/11/01 03:47:01;;;;;;;2.00;1.90;;;;;;;;;;5097204;28;20212;-65
2022/11/01 03:49:28;;;;;;;2.00;1.90;;;;;;;;;;5097935;28;20199;-65
2022/11/01 03:51:57;;;;;;;2.13;1.92;;;;;;;;;;5098185;28;20290;-65
2022/11/01 03:54:27;;;;;;;2.10;1.90;;;;;;;;;;5097705;28;20656;-65
2022/11/01 03:56:55;;;;;;;2.35;2.15;;;;;;;;;;5098218;28;20195;-65
2022/11/01 03:59:23;;;;;;;2.08;1.98;;;;;;;;;;5097302;28;20207;-65
2022/11/01 04:01:51;;;;;;;1.90;1.80;;;;;;;;;;5097925;28;20281;-65
2022/11/01 04:04:19;;;;;;;1.95;1.85;;;;;;;;;;5098047;28;20203;-65
2022/11/01 04:06:46;;;;;;;1.90;1.80;;;;;;;;;;5097557;28;20251;-65
2022/11/01 04:09:16;;;;;;;1.95;1.85;;;;;;;;;;5098503;28;20199;-65
2022/11/01 04:11:44;;;;;;;1.98;1.88;;;;;;;;;;5097754;28;20284;-65
2022/11/01 04:22:27;;;;;;;2.35;2.15;;;;;;;;;;5070056;28;20208;-65
2022/11/01 04:24:56;;;;;;;2.30;2.10;;;;;;;;;;5063903;28;20219;-65
2022/11/01 04:27:24;;;;;;;2.05;1.95;;;;;;;;;;5076945;28;20260;-65
2022/11/01 04:29:52;;;;;;;1.90;1.80;;;;;;;;;;5074299;28;20196;-66
2022/11/01 04:32:19;;;;;;;2.03;1.90;;;;;;;;;;5063219;28;20284;-66
2022/11/01 04:34:47;;;;;;;2.00;1.90;;;;;;;;;;5061411;28;20197;-66
2022/11/01 04:37:15;;;;;;;2.25;2.05;;;;;;;;;;5077257;28;20204;-65
2022/11/01 04:39:43;;;;;;;1.90;1.80;;;;;;;;;;5077164;28;20201;-65
2022/11/01 04:42:12;;;;;;;2.20;2.10;;;;;;;;;;5076561;28;20231;-65
2022/11/01 04:44:40;;;;;;;1.92;1.83;;;;;;;;;;5073385;28;20233;-65
2022/11/01 04:47:08;;;;;;;2.30;2.10;;;;;;;;;;5056909;28;20189;-65
2022/11/01 04:49:36;;;;;;;1.90;1.80;;;;;;;;;;5057155;28;20212;-65
2022/11/01 04:52:04;;;;;;;2.13;2.03;;;;;;;;;;5040211;28;20204;-65
2022/11/01 04:54:32;;;;;;;2.00;1.90;;;;;;;;;;5061100;28;20232;-65
2022/11/01 04:57:00;;;;;;;2.20;2.10;;;;;;;;;;5056533;28;20304;-65
2022/11/01 04:59:29;;;;;;;2.00;1.90;;;;;;;;;;5059421;28;20197;-65
2022/11/01 05:01:56;;;;;;;2.20;2.05;;;;;;;;;;5072063;28;20315;-66
2022/11/01 05:04:24;;;;;;;2.20;2.10;;;;;;;;;;5079558;28;20238;-65
2022/11/01 05:06:51;;;;;;;2.15;1.95;;;;;;;;;;5060696;28;20668;-65
2022/11/01 05:09:19;;;;;;;2.42;2.00;;;;;;;;;;5068851;28;20241;-65
2022/11/01 05:11:46;;;;;;;1.95;1.85;;;;;;;;;;5080177;28;20250;-65
2022/11/01 05:14:14;;;;;;;2.10;2.00;;;;;;;;;;5080375;28;20425;-65
2022/11/01 05:16:43;;;;;;;2.45;2.25;;;;;;;;;;5083130;28;20306;-65
2022/11/01 05:19:10;;;;;;;2.17;2.08;;;;;;;;;;5100284;28;20532;-65
2022/11/01 05:21:38;;;;;;;2.20;2.10;;;;;;;;;;5099710;28;20268;-65
2022/11/01 05:24:06;;;;;;;2.25;2.08;;;;;;;;;;5099386;28;20287;-66
2022/11/01 05:26:35;;;;;;;2.28;2.08;;;;;;;;;;5099081;28;20323;-65
2022/11/01 05:29:02;;;;;;;2.53;2.33;;;;;;;;;;5100793;28;20257;-65
2022/11/01 05:31:29;;;;;;;2.28;2.08;;;;;;;;;;5099812;28;20540;-65
2022/11/01 05:33:59;;;;;;;2.30;2.10;;;;;;;;;;5099678;28;20196;-65
2022/11/01 05:36:26;;;;;;;2.25;2.05;;;;;;;;;;5098601;28;20263;-65
2022/11/01 05:38:56;;;;;;;2.13;2.03;;;;;;;;;;5100159;28;20239;-65
2022/11/01 05:41:24;;;;;;;1.90;1.80;;;;;;;;;;5098909;28;20278;-65
2022/11/01 05:43:51;;;;;;;2.70;2.50;;;;;;;;;;5098944;28;20200;-65
2022/11/01 05:46:19;;;;;;;2.10;2.00;;;;;;;;;;5098766;28;20488;-65
2022/11/01 05:48:46;;;;;;;2.03;1.92;;;;;;;;;;5099065;28;20716;-65
2022/11/01 05:51:15;;;;;;;2.25;2.10;;;;;;;;;;5098611;28;20253;-65
2022/11/01 05:53:43;;;;;;;2.40;2.15;;;;;;;;;;5098636;28;20290;-65
2022/11/01 05:56:10;;;;;;;2.15;2.05;;;;;;;;;;5098352;28;20435;-65
2022/11/01 05:58:38;;;;;;;2.20;2.10;;;;;;;;;;5097640;28;20200;-65
2022/11/01 06:01:06;;;;;;;2.13;2.00;;;;;;;;;;5097046;28;20297;-65
2022/11/01 06:03:34;;;;;;;2.10;2.00;;;;;;;;;;5097732;28;20295;-65
2022/11/01 06:06:02;;;;;;;2.40;1.90;;;;;;;;;;5096788;28;20196;-65
2022/11/01 06:08:31;;;;;;;2.10;2.00;;;;;;;;;;5096401;28;20298;-66
2022/11/01 06:11:02;;;;;;;2.30;2.10;;;;;;;;;;5095703;28;20200;-65
2022/11/01 06:13:30;;;;;;;2.40;2.20;;;;;;;;;;5096720;28;20200;-66
2022/11/01 06:16:01;;;;;;;2.67;2.40;;;;;;;;;;5095752;28;20326;-66
2022/11/01 06:18:28;;;;;;;2.22;2.03;;;;;;;;;;5095854;28;20265;-66
2022/11/01 06:20:56;;;;;;;2.40;2.20;;;;;;;;;;5096249;28;20219;-65
2022/11/01 06:23:23;;;;;;;2.33;1.90;;;;;;;;;;5096197;28;20199;-65
2022/11/01 06:25:59;;;;;;;2.45;2.25;;;;;;;;;;5095307;28;20191;-66
2022/11/01 06:28:28;;;;;;;2.30;2.10;;;;;;;;;;5095721;28;20265;-65
2022/11/01 06:30:57;;;;;;;2.58;2.20;;;;;;;;;;5095544;28;20196;-65
2022/11/01 06:33:24;;;;;;;2.08;1.98;;;;;;;;;;5094423;28;20202;-65
2022/11/01 06:35:51;;;;;;;2.20;2.00;;;;;;;;;;5095529;28;20850;-65
2022/11/01 06:38:19;;;;;;;2.33;2.13;;;;;;;;;;5095651;28;20231;-65
2022/11/01 06:40:47;;;;;;;2.53;2.33;;;;;;;;;;5095798;28;20204;-65
2022/11/01 06:43:16;;;;;;;2.70;2.50;;;;;;;;;;5095400;28;20485;-65
2022/11/01 06:45:43;;;;;;;2.50;2.30;;;;;;;;;;5095536;28;20199;-65
2022/11/01 06:48:13;;;;;;;3.25;2.40;;;;;;;;;;5095618;28;20231;-65
2022/11/01 06:50:43;;;;;;;2.50;2.30;;;;;;;;;;5096261;28;20687;-65
2022/11/01 06:53:10;;;;;;;2.45;2.28;;;;;;;;;;5095559;28;20200;-65
2022/11/01 06:55:38;;;;;;;2.42;2.22;;;;;;;;;;5095885;28;20542;-65
2022/11/01 06:58:05;;;;;;;2.30;2.10;;;;;;;;;;5095475;28;20264;-65
2022/11/01 07:00:34;;;;;;;2.90;2.20;;;;;;;;;;5095990;28;20655;-65
2022/11/01 07:03:03;;;;;;;2.42;2.22;;;;;;;;;;5096434;28;20251;-65
2022/11/01 07:05:31;;;;;;;2.40;2.20;;;;;;;;;;5095903;28;20299;-65
2022/11/01 07:07:59;;;;;;;2.40;2.20;;;;;;;;;;5095904;28;20277;-65
2022/11/01 07:10:28;;;;;;;2.40;2.20;;;;;;;;;;5096630;28;20211;-65
2022/11/01 07:12:57;;;;;;;2.60;2.40;;;;;;;;;;5096705;28;20297;-65
2022/11/01 07:15:25;;;;;;;2.50;2.30;;;;;;;;;;5083147;28;20200;-65
2022/11/01 07:17:57;;;;;;;3.00;2.20;;;;;;;;;;5095976;28;20277;-65
2022/11/01 07:20:24;;;;;;;2.45;2.22;;;;;;;;;;5096158;28;20200;-65
2022/11/01 07:23:01;;;;;;;2.40;2.20;;;;;;;;;;5094715;28;20310;-65
2022/11/01 07:25:29;;;;;;;2.38;2.17;;;;;;;;;;5095664;28;20208;-65
2022/11/01 07:27:56;;;;;;;2.47;2.28;;;;;;;;;;5096375;28;20231;-65
2022/11/01 07:30:24;;;;;;;2.47;2.28;;;;;;;;;;5097030;28;20282;-65
2022/11/01 07:32:57;;;;;;;2.45;2.25;;;;;;;;;;5096802;28;20219;-65
2022/11/01 07:35:25;;;;;;;2.38;2.17;;;;;;;;;;5095233;28;20199;-65
2022/11/01 07:37:53;;;;;;;2.55;2.35;;;;;;;;;;5095410;28;20594;-65
2022/11/01 07:40:26;;;;;;;2.60;2.40;;;;;;;;;;5095965;28;20204;-65
2022/11/01 07:42:54;;;;;;;2.95;2.30;;;;;;;;;;5095122;28;20706;-65
2022/11/01 07:45:22;;;;;;;2.72;2.42;;;;;;;;;;5095385;28;20634;-65
2022/11/01 07:47:49;;;;;;;2.95;2.75;;;;;;;;;;5095866;28;20210;-65
2022/11/01 07:50:18;;;;;;;2.65;2.45;;;;;;;;;;5095095;28;20207;-66
2022/11/01 07:52:46;;;;;;;3.10;2.85;;;;;;;;;;5095162;28;20227;-65
2022/11/01 07:55:14;;;;;;;2.95;2.67;;;;;;;;;;5094149;28;20231;-65
2022/11/01 07:57:41;;;;;;;2.65;2.45;;;;;;;;;;5094898;28;20202;-65
2022/11/01 08:00:10;;;;;;;2.70;2.50;;;;;;;;;;5095483;28;20206;-65
2022/11/01 08:02:38;;;;;;;2.70;2.50;;;;;;;;;;5094335;28;20898;-65
2022/11/01 08:05:08;;;;;;;2.60;2.40;;;;;;;;;;5094148;28;20219;-65
2022/11/01 08:07:40;;;;;;;2.60;2.40;;;;;;;;;;5095125;28;20196;-65
2022/11/01 08:10:07;;;;;;;2.97;2.60;;;;;;;;;;5095120;28;20211;-65
2022/11/01 08:12:35;;;;;;;2.50;2.30;;;;;;;;;;5094520;28;20223;-65
2022/11/01 08:15:03;;;;;;;2.78;2.58;;;;;;;;;;5093925;28;20207;-65
2022/11/01 08:17:30;;;;;;;2.60;2.40;;;;;;;;;;5094140;28;20615;-65
2022/11/01 08:19:58;;;;;;;2.90;2.67;;;;;;;;;;5093841;28;20631;-65
2022/11/01 08:22:25;;;;;;;2.67;2.47;;;;;;;;;;5094314;28;20230;-65
2022/11/01 08:24:54;;;;;;;2.65;2.38;;;;;;;;;;5094687;28;20239;-65
2022/11/01 08:27:22;;;;;;;2.50;2.30;;;;;;;;;;5094153;28;20257;-65
2022/11/01 08:29:49;;;;;;;2.58;2.38;;;;;;;;;;5093839;28;20268;-66
2022/11/01 08:32:20;;;;;;;2.60;2.40;;;;;;;;;;5093134;28;20196;-65
2022/11/01 08:34:47;;;;;;;2.85;2.60;;;;;;;;;;5092475;28;20238;-65
2022/11/01 08:37:17;;;;;;;2.67;2.35;;;;;;;;;;5093645;28;20200;-65
2022/11/01 08:39:44;;;;;;;2.53;2.33;;;;;;;;;;5094446;28;20260;-65
2022/11/01 08:42:13;;;;;;;2.70;2.50;;;;;;;;;;5093796;28;20398;-65
2022/11/01 08:44:41;;;;;;;2.70;2.50;;;;;;;;;;5094464;28;20302;-66
2022/11/01 08:47:10;;;;;;;2.72;2.53;;;;;;;;;;5094115;28;20204;-65
2022/11/01 08:49:37;;;;;;;2.75;2.55;;;;;;;;;;5094510;28;20231;-65
2022/11/01 08:52:05;;;;;;;2.40;2.20;;;;;;;;;;5094306;28;20246;-65
2022/11/01 08:54:33;;;;;;;2.50;2.30;;;;;;;;;;5094629;28;20207;-66
2022/11/01 08:57:01;;;;;;;2.70;2.50;;;;;;;;;;5093240;28;20611;-65
2022/11/01 08:59:30;;;;;;;2.50;2.30;;;;;;;;;;5093577;28;20211;-65
2022/11/01 09:01:57;;;;;;;2.80;2.40;;;;;;;;;;5094420;28;20325;-65
2022/11/01 09:04:25;;;;;;;2.30;2.17;;;;;;;;;;5094151;28;20298;-66
2022/11/01 09:06:52;;;;;;;3.28;2.60;;;;;;;;;;5093243;28;20755;-66
2022/11/01 09:09:20;;;;;;;2.97;2.40;;;;;;;;;;5094092;28;20739;-65
2022/11/01 09:11:47;;;;;;;5.20;2.05;;;;;;;;;;5093797;28;20265;-67
2022/11/01 09:14:16;;;;;;;2.42;2.22;;;;;;;;;;5094448;28;20285;-68
2022/11/01 09:16:45;;;;;;;2.50;2.30;;;;;;;;;;5093839;28;20318;-68
2022/11/01 09:19:12;;;;;;;2.85;2.20;;;;;;;;;;5095033;28;20200;-66
2022/11/01 09:21:40;;;;;;;2.70;2.50;;;;;;;;;;5093756;28;20207;-65
2022/11/01 09:24:08;;;;;;;2.40;2.20;;;;;;;;;;5094617;28;20200;-65
2022/11/01 09:26:37;;;;;;;2.95;2.70;;;;;;;;;;5093782;28;20229;-65
2022/11/01 09:29:05;;;;;;;2.92;2.50;;;;;;;;;;5093371;28;20196;-65
2022/11/01 09:31:33;;;;;;;2.22;2.10;;;;;;;;;;5093646;28;20215;-65
2022/11/01 10:21:11;;;;;;;3.58;2.55;;;;;;;;;;5089987;28;20904;-68
2022/11/01 10:23:42;;;;;;;2.55;2.35;;;;;;;;;;5089450;28;20202;-68
2022/11/01 10:26:13;;;;;;;2.70;2.50;;;;;;;;;;5079744;28;20552;-67
2022/11/01 10:28:47;;;;;;;2.88;2.40;;;;;;;;;;5078967;28;20213;-67
2022/11/01 10:31:16;;;;;;;2.50;2.35;;;;;;;;;;5081384;28;20188;-70
2022/11/01 10:33:47;;;;;;;3.22;2.80;;;;;;;;;;5089980;28;20200;-67
2022/11/01 10:36:18;;;;;;;3.95;2.75;;;;;;;;;;5089331;28;20661;-68
2022/11/01 10:38:47;;;;;;;2.88;2.67;;;;;;;;;;5089329;28;20184;-69
2022/11/01 10:41:21;;;;;;;2.38;2.17;;;;;;;;;;5090426;28;20203;-67
2022/11/01 10:43:49;;;;;;;2.50;2.30;;;;;;;;;;5089494;28;20575;-68
2022/11/01 10:46:20;;;;;;;3.05;2.40;;;;;;;;;;5084184;28;20727;-69
2022/11/01 10:48:49;;;;;;;2.30;2.15;;;;;;;;;;5089536;28;20862;-68
2022/11/01 10:51:20;;;;;;;2.50;2.30;;;;;;;;;;5082872;28;20196;-69
2022/11/01 10:53:49;;;;;;;2.92;2.60;;;;;;;;;;5087857;28;20213;-66
2022/11/01 10:56:19;;;;;;;2.42;2.22;;;;;;;;;;5088724;28;20257;-67
2022/11/01 10:58:48;;;;;;;2.85;2.50;;;;;;;;;;5090253;28;20204;-66
2022/11/01 11:01:17;;;;;;;3.50;2.55;;;;;;;;;;5087719;28;20600;-66
2022/11/01 11:03:45;;;;;;;2.45;2.25;;;;;;;;;;5089611;28;20195;-67
2022/11/01 11:06:14;;;;;;;2.90;2.60;;;;;;;;;;5091101;28;20204;-67
2022/11/01 11:08:44;;;;;;;2.70;2.50;;;;;;;;;;5089211;28;20261;-67
2022/11/01 11:11:13;;;;;;;2.38;2.17;;;;;;;;;;5088595;28;20200;-67
2022/11/01 11:13:42;;;;;;;2.42;2.22;;;;;;;;;;5089077;28;20749;-67
2022/11/01 11:16:14;;;;;;;2.30;2.10;;;;;;;;;;5089642;28;20215;-67
2022/11/01 11:19:00;;;;;;;2.22;2.03;;;;;;;;;;5089352;28;20204;-67
2022/11/01 11:21:27;;;;;;;2.45;2.28;;;;;;;;;;5079558;28;20207;-67
2022/11/01 11:23:56;;;;;;;2.53;2.00;;;;;;;;;;5076067;28;20236;-67
2022/11/01 11:26:26;;;;;;;2.40;2.20;;;;;;;;;;5055174;28;20197;-67
2022/11/01 11:28:54;;;;;;;3.45;2.42;;;;;;;;;;5059470;28;20190;-67
2022/11/01 11:31:23;;;;;;;2.17;2.00;;;;;;;;;;5075070;28;20267;-67
2022/11/01 11:33:52;;;;;;;2.25;2.08;;;;;;;;;;5075547;28;20231;-67
2022/11/01 11:36:26;;;;;;;2.03;1.92;;;;;;;;;;5075634;28;20219;-67
2022/11/01 11:38:56;;;;;;;2.40;2.20;;;;;;;;;;5075579;28;20198;-67
2022/11/01 11:41:28;;;;;;;2.38;2.17;;;;;;;;;;5074427;28;20203;-66
2022/11/01 11:43:55;;;;;;;2.95;2.15;;;;;;;;;;5075130;28;20693;-67
2022/11/01 11:46:23;;;;;;;2.50;2.30;;;;;;;;;;5074607;28;20196;-67
2022/11/01 11:48:52;;;;;;;2.70;2.25;;;;;;;;;;5074520;28;20200;-66
2022/11/01 11:51:20;;;;;;;2.35;2.15;;;;;;;;;;5075535;28;20207;-67
2022/11/01 11:54:02;;;;;;;2.15;2.00;;;;;;;;;;5074311;28;20196;-66
2022/11/01 11:56:31;;;;;;;2.30;2.20;;;;;;;;;;5074503;28;20206;-66
2022/11/01 11:59:07;;;;;;;2.40;2.20;;;;;;;;;;5074721;28;20200;-67
2022/11/01 12:01:35;;;;;;;2.58;2.00;;;;;;;;;;5074859;28;20196;-67
2022/11/01 12:04:06;;;;;;;2.42;2.22;;;;;;;;;;5074470;28;20204;-67
2022/11/01 12:06:39;;;;;;;2.30;2.10;;;;;;;;;;5074771;28;20212;-67
2022/11/01 12:09:07;;;;;;;2.35;2.13;;;;;;;;;;5074502;28;20581;-66
2022/11/01 12:11:40;;;;;;;2.40;2.20;;;;;;;;;;5075347;28;20295;-67
2022/11/01 12:14:18;;;;;;;2.42;2.15;;;;;;;;;;5074460;28;20200;-67
2022/11/01 12:16:46;;;;;;;2.15;1.95;;;;;;;;;;5075073;28;20589;-66
2022/11/01 12:19:32;;;;;;;2.53;2.33;;;;;;;;;;5074022;28;20644;-67
2022/11/01 12:22:03;;;;;;;2.40;2.20;;;;;;;;;;5074913;28;20278;-67
2022/11/01 12:24:33;;;;;;;2.10;1.90;;;;;;;;;;5074465;28;20188;-67
2022/11/01 12:27:04;;;;;;;2.22;2.03;;;;;;;;;;5074685;28;20763;-67
2022/11/01 12:29:34;;;;;;;1.83;1.73;;;;;;;;;;5073979;28;20224;-66
2022/11/01 12:32:05;;;;;;;2.33;2.15;;;;;;;;;;5073722;28;20230;-67
2022/11/01 12:34:33;;;;;;;2.15;1.95;;;;;;;;;;5074064;28;20196;-67
2022/11/01 12:37:03;;;;;;;2.30;2.10;;;;;;;;;;5074716;28;20208;-67
2022/11/01 12:39:40;;;;;;;2.40;1.98;;;;;;;;;;5074469;28;20582;-67
2022/11/01 12:42:11;;;;;;;2.40;2.20;;;;;;;;;;5074426;28;20502;-68
2022/11/01 12:44:40;;;;;;;2.17;2.00;;;;;;;;;;5073914;28;20215;-67
2022/11/01 12:47:11;;;;;;;2.15;2.05;;;;;;;;;;5075137;28;20251;-66
2022/11/01 12:49:42;;;;;;;1.90;1.80;;;;;;;;;;5073686;28;20216;-67
2022/11/01 12:52:15;;;;;;;2.08;1.98;;;;;;;;;;5074385;28;20216;-67
2022/11/01 12:54:45;;;;;;;1.90;1.80;;;;;;;;;;5074087;28;20196;-67
2022/11/01 12:57:15;;;;;;;2.40;2.20;;;;;;;;;;5074024;28;20212;-67
2022/11/01 12:59:44;;;;;;;2.03;1.92;;;;;;;;;;5072645;28;20197;-67
2022/11/01 13:02:20;;;;;;;2.03;1.88;;;;;;;;;;5074225;28;20220;-67
2022/11/01 13:04:51;;;;;;;1.90;1.80;;;;;;;;;;5073658;28;20200;-66
2022/11/01 13:07:25;;;;;;;1.90;1.80;;;;;;;;;;5073680;28;20222;-67
2022/11/01 13:10:01;;;;;;;2.00;1.80;;;;;;;;;;5073776;28;20229;-67
2022/11/01 13:12:33;;;;;;;1.90;1.80;;;;;;;;;;5072670;28;20200;-67
2022/11/01 13:15:04;;;;;;;2.00;1.90;;;;;;;;;;5071199;28;20197;-67
2022/11/01 13:17:37;;;;;;;1.88;1.77;;;;;;;;;;5072229;28;20630;-66
2022/11/01 13:20:14;;;;;;;2.33;1.95;;;;;;;;;;5083629;28;20660;-67
2022/11/01 13:22:45;;;;;;;1.95;1.85;;;;;;;;;;5092245;28;20654;-66
2022/11/01 13:25:15;;;;;;;2.15;1.88;;;;;;;;;;5091767;28;20560;-66
2022/11/01 13:27:47;;;;;;;2.25;2.05;;;;;;;;;;5090684;28;20203;-66
2022/11/01 13:30:15;;;;;;;2.13;2.00;;;;;;;;;;5091362;28;20230;-67
2022/11/01 13:32:49;;;;;;;2.20;2.10;;;;;;;;;;5092206;28;20227;-67
2022/11/01 13:35:31;;;;;;;1.90;1.80;;;;;;;;;;5091823;28;20232;-67
2022/11/01 13:38:01;;;;;;;1.90;1.80;;;;;;;;;;5090113;28;20215;-67
2022/11/01 13:40:31;;;;;;;1.80;1.70;;;;;;;;;;5092574;28;20495;-67
2022/11/01 13:43:03;;;;;;;2.40;1.90;;;;;;;;;;5092657;28;20278;-67
2022/11/01 13:45:45;;;;;;;2.20;1.85;;;;;;;;;;5092042;28;20207;-67
2022/11/01 13:48:21;;;;;;;1.70;1.60;;;;;;;;;;5072494;28;20231;-67
2022/11/01 13:50:53;;;;;;;1.88;1.77;;;;;;;;;;5092647;28;20222;-67
2022/11/01 13:53:24;;;;;;;1.90;1.80;;;;;;;;;;5092987;28;20203;-67
2022/11/01 13:55:53;;;;;;;2.10;2.00;;;;;;;;;;5091910;28;20223;-67
2022/11/01 13:58:23;;;;;;;2.13;1.92;;;;;;;;;;5091894;28;20596;-67
2022/11/01 14:00:53;;;;;;;1.88;1.77;;;;;;;;;;5091023;28;20195;-67
2022/11/01 14:03:22;;;;;;;2.47;2.03;;;;;;;;;;5092381;28;20577;-67
2022/11/01 14:06:04;;;;;;;1.90;1.80;;;;;;;;;;5092305;28;20585;-67
2022/11/01 14:08:36;;;;;;;1.80;1.70;;;;;;;;;;5090927;28;20217;-67
2022/11/01 14:11:04;;;;;;;2.00;1.80;;;;;;;;;;5091228;28;20642;-66
2022/11/01 14:13:36;;;;;;;1.95;1.80;;;;;;;;;;5091452;28;20196;-66
2022/11/01 14:16:18;;;;;;;1.80;1.70;;;;;;;;;;5091525;28;20214;-67
2022/11/01 14:19:14;;;;;;;1.90;1.80;;;;;;;;;;5074452;28;20206;-67
2022/11/01 14:21:42;;;;;;;1.80;1.70;;;;;;;;;;5033080;28;20268;-66
2022/11/01 14:24:18;;;;;;;1.60;1.50;;;;;;;;;;5090974;28;20196;-66
2022/11/01 14:26:48;;;;;;;1.80;1.70;;;;;;;;;;5091898;28;20206;-67
2022/11/01 14:29:17;;;;;;;1.60;1.50;;;;;;;;;;5091806;28;20199;-66
2022/11/01 14:31:45;;;;;;;1.75;1.65;;;;;;;;;;5091155;28;20219;-66
2022/11/01 14:34:23;;;;;;;1.80;1.70;;;;;;;;;;5090011;28;20342;-66
2022/11/01 14:36:52;;;;;;;2.17;1.67;;;;;;;;;;5092428;28;20625;-67
2022/11/01 14:39:22;;;;;;;1.55;1.45;;;;;;;;;;5091295;28;20188;-67
2022/11/01 14:41:49;;;;;;;1.70;1.60;;;;;;;;;;5091590;28;20203;-68
2022/11/01 14:44:21;;;;;;;1.90;1.80;;;;;;;;;;5090519;28;20196;-68
2022/11/01 14:46:50;;;;;;;2.03;1.80;;;;;;;;;;5090777;28;20488;-67
2022/11/01 14:49:21;;;;;;;1.90;1.80;;;;;;;;;;5089915;28;20192;-66
2022/11/01 14:51:51;;;;;;;1.83;1.73;;;;;;;;;;5090492;28;20218;-68
2022/11/01 14:54:23;;;;;;;1.75;1.65;;;;;;;;;;5091375;28;20295;-67
2022/11/01 14:56:52;;;;;;;1.70;1.60;;;;;;;;;;5094714;28;20257;-66
2022/11/01 14:59:22;;;;;;;1.85;1.75;;;;;;;;;;5095835;28;20261;-67
2022/11/01 15:01:50;;;;;;;2.00;1.90;;;;;;;;;;5096690;28;20206;-67
2022/11/01 15:04:21;;;;;;;1.85;1.60;;;;;;;;;;5095894;28;20265;-68
2022/11/01 15:06:49;;;;;;;1.60;1.50;;;;;;;;;;5095123;28;20197;-67
2022/11/01 15:09:20;;;;;;;1.90;1.80;;;;;;;;;;5096138;28;20647;-67
2022/11/01 15:11:48;;;;;;;1.60;1.50;;;;;;;;;;5095281;28;20227;-67
2022/11/01 15:14:21;;;;;;;1.80;1.70;;;;;;;;;;5093970;28;20205;-67
2022/11/01 15:16:50;;;;;;;1.83;1.73;;;;;;;;;;5095611;28;20200;-66
2022/11/01 15:19:26;;;;;;;1.60;1.50;;;;;;;;;;5094389;28;20238;-68
2022/11/01 15:21:55;;;;;;;1.88;1.77;;;;;;;;;;5094547;28;20241;-68
2022/11/01 15:24:24;;;;;;;2.35;1.75;;;;;;;;;;5094239;28;20665;-66
2022/11/01 15:26:52;;;;;;;1.80;1.70;;;;;;;;;;5095265;28;20202;-68
2022/11/01 15:29:20;;;;;;;1.90;1.80;;;;;;;;;;5094938;28;20720;-68
2022/11/01 15:31:48;;;;;;;1.90;1.80;;;;;;;;;;5095365;28;20223;-68
2022/11/01 15:34:24;;;;;;;1.60;1.50;;;;;;;;;;5094703;28;20564;-68
2022/11/01 15:36:51;;;;;;;1.70;1.60;;;;;;;;;;5095154;28;20210;-67
2022/11/01 15:39:20;;;;;;;2.10;1.90;;;;;;;;;;5095414;28;20195;-67
2022/11/01 15:41:48;;;;;;;1.70;1.60;;;;;;;;;;5095442;28;20200;-68
2022/11/01 15:44:22;;;;;;;1.80;1.70;;;;;;;;;;5095306;28;20199;-67
2022/11/01 15:46:50;;;;;;;1.75;1.65;;;;;;;;;;5095516;28;20206;-66
2022/11/01 15:49:19;;;;;;;1.67;1.58;;;;;;;;;;5095424;28;20200;-66
2022/11/01 15:51:51;;;;;;;1.73;1.63;;;;;;;;;;5094615;28;20229;-66
2022/11/01 15:54:32;;;;;;;1.92;1.50;;;;;;;;;;5093655;28;20192;-68
2022/11/01 15:57:01;;;;;;;1.67;1.58;;;;;;;;;;5102399;28;20230;-67